Flugplatz Hannover

Bericht für EDDV

vom 02.07. um 11:20 UTC

Wind 6 kt aus 220°

Sichtweite 10 km oder mehr

gute Sicht, keine Wolken < 5000 ft, keine CB, keine Wettererscheinungen (CAVOK)

Temperatur 23.0°C

Taupunkt 8.0°C

Luftfeuchtigkeit 38%

Luftdruck 1022 hPa

keine wesentliche Wetteränderung innerhalb den nächsten 2 Stunden zu erwarten

EDDV 021120Z AUTO 22006KT 180V290 CAVOK 23/08 Q1022 NOSIG

Prognose für EDDV

vom 02.07. um 11:00 UTC

Zwischen 12:00 UTC und 17:00 UTC

Wind 8 kt aus 200°

Sichtweite 10 km oder mehr

keine signifikanten Wettererscheinungen

keine Wolken


Zwischen 17:00 und 19:00 UTC übergehend zu

Wind 4 kt aus 140°

Sichtweite 10 km oder mehr

keine signifikanten Wettererscheinungen

keine Wolken


Am 03.07. zwischen 06:00 und 09:00 UTC übergehend zu

Wind 8 kt aus 260°

Sichtweite 10 km oder mehr

keine signifikanten Wettererscheinungen

keine Wolken

TAF EDDV 021100Z 0212/0312 20008KT CAVOK BECMG 0217/0219 14004KT BECMG 0306/0309 26008KT
Impressum